This is the latest recevied weather packets stored in our database for station/object OK1LPD-6. If no packets are shown the sender has not sent any weather packets the latest 1 day(s).
| Time | Temp. | Humidity | Pressure | Rain* | Wind** | Luminosity | Snow |
|---|---|---|---|---|---|---|---|
| 1836274792 | 10.56° C | 99% | 1022.4 hPa | 0 mm | 0 m/s | - | - |
| 1836274185 | 10.56° C | 99% | 1022.5 hPa | 0 mm | 0 m/s | - | - |
| 1778036675 | 11.67° C | 99% | 1006.3 hPa | 0 mm | 0 m/s | - | - |
| 1778036075 | 11.67° C | 99% | 1006.5 hPa | 0 mm | 0 m/s | - | - |
| 1778035485 | 12.22° C | 99% | 1006.6 hPa | 0 mm | 0 m/s | - | - |
| 1778034875 | 12.22° C | 99% | 1006.6 hPa | 0 mm | 0 m/s | - | - |
| 1778034275 | 12.22° C | 99% | 1006.8 hPa | 0 mm | 0 m/s | - | - |
| 1778033688 | 12.22° C | 99% | 1006.8 hPa | 0 mm | 0 m/s | - | - |
| 1778033075 | 12.78° C | 98% | 1006.8 hPa | 0 mm | 0 m/s | - | - |
| 1778032475 | 12.78° C | 98% | 1006.9 hPa | 0 mm | 0 m/s | - | - |
| 1778031886 | 12.78° C | 98% | 1006.5 hPa | 0 mm | 0 m/s | - | - |
| 1778031275 | 12.78° C | 98% | 1006.7 hPa | 0 mm | 0 m/s | - | - |
| 1778030675 | 13.33° C | 98% | 1006.7 hPa | 0 mm | 0 m/s | - | - |
| 1778030088 | 13.33° C | 98% | 1006.4 hPa | 0 mm | 0 m/s | - | - |
| 1778029476 | 13.33° C | 98% | 1006.4 hPa | 0 mm | 0 m/s | - | - |
| 1778028875 | 13.33° C | 97% | 1006.3 hPa | 0 mm | 0 m/s | - | - |
| 1778028287 | 13.33° C | 97% | 1006.2 hPa | 0 mm | 0 m/s | - | - |
| 1778027676 | 13.89° C | 97% | 1006.3 hPa | 0 mm | 0 m/s | - | - |
| 1778027075 | 13.89° C | 97% | 1006.4 hPa | 0 mm | 0 m/s | - | - |
| 1778026496 | 13.89° C | 97% | 1006.4 hPa | 0 mm | 0 m/s | - | - |
| 1778025876 | 14.44° C | 96% | 1006.3 hPa | 0 mm | 0 m/s | - | - |
| 1778025277 | 14.44° C | 96% | 1006.1 hPa | 0 mm | 0 m/s | - | - |
| 1778024695 | 14.44° C | 96% | 1006.2 hPa | 0 mm | 0 m/s | - | - |
| 1778024077 | 14.44° C | 95% | 1006.3 hPa | 0 mm | 0 m/s | - | - |
| 1778023477 | 14.44° C | 95% | 1006.4 hPa | 0 mm | 0 m/s | - | - |
* Rain latest hour (hover to see other rain measurements)
** Current wind speed in m/s (hover to see current wind gust speed)